WZZ11S EGLL-EBAW
Flight info
| Callsign | WZZ11S |
|---|---|
| Flight time | 0h 39m |
| Altitude | 23000 |
| Route | DET Q70 KOK |
| Aircraft | A320/M-SDE3FGHIRWY/LB1 |
Departure
| Time | 2026-04-15 10:38 |
|---|---|
| Airport | London Heathrow Airport (EGLL) |
Arrival
| Time | 2026-04-15 11:17 |
|---|---|
| Airport | Antwerp International Airport (Deurne) (EBAW) |
| Time | Latitude | Longitude | Altitude | Speed | Heading |
|---|---|---|---|---|---|
| 2026-04-15 10:19 | 51.47341 | -0.44204 | 90 ft | 0 kts | 271° |
| 2026-04-15 10:30 | 51.47341 | -0.44193 | 91 ft | 2 kts | 271° |
| 2026-04-15 10:30 | 51.47341 | -0.44161 | 89 ft | 3 kts | 274° |
| 2026-04-15 10:30 | 51.47339 | -0.44129 | 90 ft | 3 kts | 278° |
| 2026-04-15 10:30 | 51.47335 | -0.44097 | 93 ft | 3 kts | 289° |
| 2026-04-15 10:31 | 51.47327 | -0.44070 | 91 ft | 3 kts | 319° |
| 2026-04-15 10:31 | 51.47317 | -0.44060 | 92 ft | 1 kts | 358° |
| 2026-04-15 10:31 | 51.47316 | -0.44059 | 92 ft | 0 kts | 359° |
| 2026-04-15 10:33 | 51.47321 | -0.44060 | 92 ft | 4 kts | 358° |
| 2026-04-15 10:34 | 51.47359 | -0.44062 | 91 ft | 6 kts | 357° |
| 2026-04-15 10:34 | 51.47403 | -0.44065 | 90 ft | 7 kts | 357° |
| 2026-04-15 10:34 | 51.47450 | -0.44068 | 91 ft | 6 kts | 360° |
| 2026-04-15 10:34 | 51.47493 | -0.44055 | 94 ft | 6 kts | 40° |
| 2026-04-15 10:35 | 51.47530 | -0.44054 | 90 ft | 6 kts | 354° |
| 2026-04-15 10:35 | 51.47581 | -0.44002 | 92 ft | 14 kts | 66° |
| 2026-04-15 10:35 | 51.47592 | -0.43849 | 88 ft | 14 kts | 88° |
| 2026-04-15 10:35 | 51.47595 | -0.43694 | 90 ft | 14 kts | 88° |
| 2026-04-15 10:36 | 51.47613 | -0.43547 | 91 ft | 13 kts | 62° |
| 2026-04-15 10:36 | 51.47666 | -0.43443 | 92 ft | 10 kts | 33° |
| 2026-04-15 10:36 | 51.47729 | -0.43424 | 93 ft | 9 kts | 351° |
| 2026-04-15 10:36 | 51.47763 | -0.43508 | 91 ft | 10 kts | 270° |
| 2026-04-15 10:37 | 51.47762 | -0.43679 | 88 ft | 37 kts | 268° |
| 2026-04-15 10:37 | 51.47748 | -0.44481 | 93 ft | 102 kts | 270° |
| 2026-04-15 10:37 | 51.47751 | -0.45897 | 86 ft | 150 kts | 271° |
| 2026-04-15 10:37 | 51.47767 | -0.47651 | 599 ft | 155 kts | 263° |
| 2026-04-15 10:38 | 51.47763 | -0.49335 | 1364 ft | 152 kts | 262° |
| 2026-04-15 10:38 | 51.47725 | -0.51147 | 1775 ft | 174 kts | 261° |
| 2026-04-15 10:38 | 51.47527 | -0.53159 | 2184 ft | 192 kts | 243° |
| 2026-04-15 10:38 | 51.46713 | -0.54921 | 2627 ft | 212 kts | 217° |
| 2026-04-15 10:39 | 51.45287 | -0.55823 | 3175 ft | 234 kts | 185° |
| 2026-04-15 10:39 | 51.43675 | -0.55169 | 4030 ft | 252 kts | 151° |
| 2026-04-15 10:39 | 51.42308 | -0.53295 | 5078 ft | 257 kts | 141° |
| 2026-04-15 10:39 | 51.41019 | -0.51315 | 5713 ft | 262 kts | 140° |
| 2026-04-15 10:40 | 51.39723 | -0.49274 | 5936 ft | 262 kts | 140° |
| 2026-04-15 10:40 | 51.38429 | -0.47231 | 6000 ft | 261 kts | 140° |
| 2026-04-15 10:40 | 51.37131 | -0.45203 | 6010 ft | 260 kts | 141° |
| 2026-04-15 10:40 | 51.35832 | -0.43185 | 6009 ft | 260 kts | 141° |
| 2026-04-15 10:41 | 51.34531 | -0.41168 | 6010 ft | 260 kts | 141° |
| 2026-04-15 10:41 | 51.33226 | -0.39148 | 6004 ft | 260 kts | 141° |
| 2026-04-15 10:41 | 51.31976 | -0.37047 | 6025 ft | 265 kts | 129° |
| 2026-04-15 10:41 | 51.31353 | -0.34232 | 6031 ft | 276 kts | 103° |
| 2026-04-15 10:42 | 51.31271 | -0.31137 | 6030 ft | 281 kts | 93° |
| 2026-04-15 10:42 | 51.31382 | -0.28006 | 6031 ft | 283 kts | 90° |
| 2026-04-15 10:42 | 51.31518 | -0.24873 | 6032 ft | 282 kts | 91° |
| 2026-04-15 10:42 | 51.31616 | -0.21737 | 6032 ft | 282 kts | 92° |
| 2026-04-15 10:43 | 51.31661 | -0.18605 | 6034 ft | 282 kts | 94° |
| 2026-04-15 10:43 | 51.31665 | -0.15482 | 6032 ft | 280 kts | 95° |
| 2026-04-15 10:43 | 51.31640 | -0.12360 | 6057 ft | 281 kts | 96° |
| 2026-04-15 10:43 | 51.31600 | -0.09218 | 6889 ft | 283 kts | 96° |
| 2026-04-15 10:44 | 51.31552 | -0.06050 | 7807 ft | 287 kts | 96° |
| 2026-04-15 10:44 | 51.31500 | -0.02793 | 8658 ft | 293 kts | 96° |
| 2026-04-15 10:44 | 51.31448 | 0.00464 | 9394 ft | 298 kts | 97° |
| 2026-04-15 10:44 | 51.31393 | 0.03809 | 10148 ft | 306 kts | 97° |
| 2026-04-15 10:45 | 51.31329 | 0.07302 | 10423 ft | 330 kts | 97° |
| 2026-04-15 10:45 | 51.31262 | 0.11064 | 10830 ft | 345 kts | 96° |
| 2026-04-15 10:45 | 51.31202 | 0.14944 | 11491 ft | 352 kts | 96° |
| 2026-04-15 10:45 | 51.31144 | 0.18884 | 12189 ft | 357 kts | 95° |
| 2026-04-15 10:46 | 51.31085 | 0.22881 | 12908 ft | 362 kts | 95° |
| 2026-04-15 10:46 | 51.31021 | 0.26928 | 13615 ft | 366 kts | 95° |
| 2026-04-15 10:46 | 51.30950 | 0.31019 | 14230 ft | 370 kts | 95° |
| 2026-04-15 10:46 | 51.30874 | 0.35146 | 14863 ft | 373 kts | 96° |
| 2026-04-15 10:47 | 51.30793 | 0.39313 | 15496 ft | 376 kts | 97° |
| 2026-04-15 10:47 | 51.30552 | 0.43478 | 16162 ft | 377 kts | 101° |
| 2026-04-15 10:47 | 51.30226 | 0.47655 | 16803 ft | 380 kts | 102° |
| 2026-04-15 10:47 | 51.29857 | 0.51861 | 17413 ft | 384 kts | 102° |
| 2026-04-15 10:48 | 51.29466 | 0.56099 | 18049 ft | 387 kts | 103° |
| 2026-04-15 10:48 | 51.29073 | 0.60381 | 18622 ft | 391 kts | 103° |
| 2026-04-15 10:48 | 51.28684 | 0.64701 | 19217 ft | 395 kts | 102° |
| 2026-04-15 10:48 | 51.28303 | 0.69011 | 19803 ft | 398 kts | 102° |
| 2026-04-15 10:49 | 51.27917 | 0.73417 | 20390 ft | 402 kts | 102° |
| 2026-04-15 10:49 | 51.27528 | 0.77850 | 20960 ft | 405 kts | 102° |
| 2026-04-15 10:49 | 51.27137 | 0.82323 | 21522 ft | 408 kts | 102° |
| 2026-04-15 10:49 | 51.26737 | 0.86830 | 22086 ft | 412 kts | 102° |
| 2026-04-15 10:50 | 51.26333 | 0.91372 | 22640 ft | 415 kts | 102° |
| 2026-04-15 10:50 | 51.25924 | 0.95948 | 23022 ft | 418 kts | 102° |
| 2026-04-15 10:50 | 51.25518 | 1.00518 | 23100 ft | 412 kts | 102° |
| 2026-04-15 10:50 | 51.25118 | 1.05012 | 23106 ft | 407 kts | 102° |
| 2026-04-15 10:51 | 51.24716 | 1.09479 | 23103 ft | 406 kts | 102° |
| 2026-04-15 10:51 | 51.24311 | 1.13936 | 23102 ft | 406 kts | 102° |
| 2026-04-15 10:51 | 51.23901 | 1.18393 | 23109 ft | 406 kts | 102° |
| 2026-04-15 10:51 | 51.23489 | 1.22843 | 23108 ft | 406 kts | 102° |
| 2026-04-15 10:52 | 51.23075 | 1.27299 | 23109 ft | 406 kts | 102° |
| 2026-04-15 10:52 | 51.22656 | 1.31788 | 23112 ft | 417 kts | 102° |
| 2026-04-15 10:52 | 51.22214 | 1.36458 | 23113 ft | 434 kts | 102° |
| 2026-04-15 10:52 | 51.21752 | 1.41293 | 23113 ft | 449 kts | 102° |
| 2026-04-15 10:53 | 51.21278 | 1.46284 | 23109 ft | 460 kts | 101° |
| 2026-04-15 10:53 | 51.20803 | 1.51348 | 23112 ft | 463 kts | 101° |
| 2026-04-15 10:53 | 51.20326 | 1.56441 | 23112 ft | 464 kts | 101° |
| 2026-04-15 10:53 | 51.19854 | 1.61465 | 23111 ft | 464 kts | 101° |
| 2026-04-15 10:54 | 51.19371 | 1.66580 | 23110 ft | 471 kts | 101° |
| 2026-04-15 10:54 | 51.18868 | 1.71793 | 23112 ft | 481 kts | 101° |
| 2026-04-15 10:54 | 51.18347 | 1.77119 | 23112 ft | 491 kts | 101° |
| 2026-04-15 10:54 | 51.17814 | 1.82559 | 23111 ft | 500 kts | 101° |
| 2026-04-15 10:55 | 51.17277 | 1.88053 | 23126 ft | 502 kts | 101° |
| 2026-04-15 10:55 | 51.16740 | 1.93551 | 23128 ft | 502 kts | 101° |
| 2026-04-15 10:55 | 51.16205 | 1.99046 | 23130 ft | 502 kts | 101° |
| 2026-04-15 10:55 | 51.15668 | 2.04538 | 23130 ft | 502 kts | 101° |
| 2026-04-15 10:56 | 51.15124 | 2.10039 | 23129 ft | 502 kts | 101° |
| 2026-04-15 10:56 | 51.14576 | 2.15533 | 23131 ft | 502 kts | 101° |
| 2026-04-15 10:56 | 51.14024 | 2.21019 | 23130 ft | 502 kts | 101° |
| 2026-04-15 10:56 | 51.13468 | 2.26509 | 23126 ft | 501 kts | 101° |
| 2026-04-15 10:57 | 51.12910 | 2.31982 | 23129 ft | 501 kts | 101° |
| 2026-04-15 10:57 | 51.11786 | 2.42920 | 23104 ft | 501 kts | 101° |
| 2026-04-15 10:57 | 51.11220 | 2.48393 | 23112 ft | 501 kts | 101° |
| 2026-04-15 10:58 | 51.10661 | 2.53787 | 23132 ft | 482 kts | 101° |
| 2026-04-15 10:58 | 51.10130 | 2.58934 | 22944 ft | 462 kts | 101° |
| 2026-04-15 10:58 | 51.09659 | 2.63903 | 22677 ft | 447 kts | 97° |
| 2026-04-15 10:58 | 51.09673 | 2.68771 | 22425 ft | 434 kts | 86° |
| 2026-04-15 10:59 | 51.09920 | 2.73492 | 22157 ft | 422 kts | 86° |
| 2026-04-15 10:59 | 51.10155 | 2.78086 | 21898 ft | 412 kts | 86° |
| 2026-04-15 10:59 | 51.10382 | 2.82575 | 21635 ft | 402 kts | 86° |
| 2026-04-15 10:59 | 51.10599 | 2.86904 | 21373 ft | 392 kts | 86° |
| 2026-04-15 11:00 | 51.10811 | 2.91184 | 21118 ft | 383 kts | 86° |
| 2026-04-15 11:00 | 51.11020 | 2.95381 | 20855 ft | 378 kts | 86° |
| 2026-04-15 11:00 | 51.11228 | 2.99532 | 20467 ft | 374 kts | 86° |
| 2026-04-15 11:00 | 51.11431 | 3.03655 | 19936 ft | 375 kts | 86° |
| 2026-04-15 11:01 | 51.11634 | 3.07810 | 19338 ft | 378 kts | 86° |
| 2026-04-15 11:01 | 51.11838 | 3.11999 | 18750 ft | 381 kts | 86° |
| 2026-04-15 11:01 | 51.12042 | 3.16219 | 18128 ft | 382 kts | 86° |
| 2026-04-15 11:01 | 51.12246 | 3.20464 | 17462 ft | 383 kts | 86° |
| 2026-04-15 11:02 | 51.12449 | 3.24697 | 16817 ft | 384 kts | 86° |
| 2026-04-15 11:02 | 51.12649 | 3.28937 | 16184 ft | 384 kts | 87° |
| 2026-04-15 11:02 | 51.12844 | 3.33176 | 15561 ft | 384 kts | 87° |
| 2026-04-15 11:02 | 51.13038 | 3.37418 | 14951 ft | 384 kts | 87° |
| 2026-04-15 11:03 | 51.13233 | 3.41647 | 14357 ft | 383 kts | 87° |
| 2026-04-15 11:03 | 51.13425 | 3.45818 | 13750 ft | 381 kts | 87° |
| 2026-04-15 11:03 | 51.13616 | 3.50016 | 13089 ft | 380 kts | 87° |
| 2026-04-15 11:03 | 51.13804 | 3.54201 | 12441 ft | 377 kts | 87° |
| 2026-04-15 11:04 | 51.13989 | 3.58353 | 11804 ft | 375 kts | 87° |
| 2026-04-15 11:04 | 51.14173 | 3.62464 | 11178 ft | 365 kts | 87° |
| 2026-04-15 11:04 | 51.14348 | 3.66413 | 10569 ft | 350 kts | 88° |
| 2026-04-15 11:04 | 51.14518 | 3.70214 | 9966 ft | 339 kts | 88° |
| 2026-04-15 11:05 | 51.14682 | 3.73897 | 9303 ft | 329 kts | 88° |
| 2026-04-15 11:05 | 51.14838 | 3.77492 | 8653 ft | 321 kts | 88° |
| 2026-04-15 11:05 | 51.14988 | 3.81001 | 8022 ft | 314 kts | 89° |
| 2026-04-15 11:05 | 51.15133 | 3.84436 | 7399 ft | 308 kts | 89° |
| 2026-04-15 11:06 | 51.15273 | 3.87801 | 6790 ft | 302 kts | 89° |
| 2026-04-15 11:06 | 51.15408 | 3.91108 | 6156 ft | 297 kts | 89° |
| 2026-04-15 11:06 | 51.15541 | 3.94360 | 5515 ft | 292 kts | 89° |
| 2026-04-15 11:06 | 51.15672 | 3.97519 | 5220 ft | 276 kts | 89° |
| 2026-04-15 11:07 | 51.15796 | 4.00447 | 5171 ft | 253 kts | 90° |
| 2026-04-15 11:07 | 51.15908 | 4.03156 | 5178 ft | 242 kts | 90° |
| 2026-04-15 11:07 | 51.16012 | 4.05822 | 5182 ft | 241 kts | 90° |
| 2026-04-15 11:07 | 51.16114 | 4.08484 | 5187 ft | 241 kts | 90° |
| 2026-04-15 11:08 | 51.16216 | 4.11142 | 5143 ft | 239 kts | 90° |
| 2026-04-15 11:08 | 51.16329 | 4.13787 | 4879 ft | 239 kts | 86° |
| 2026-04-15 11:08 | 51.16726 | 4.16360 | 4602 ft | 241 kts | 71° |
| 2026-04-15 11:08 | 51.17534 | 4.18719 | 4311 ft | 244 kts | 56° |
| 2026-04-15 11:09 | 51.18708 | 4.20692 | 4019 ft | 247 kts | 40° |
| 2026-04-15 11:09 | 51.20112 | 4.22229 | 3731 ft | 248 kts | 34° |
| 2026-04-15 11:09 | 51.21472 | 4.23896 | 3485 ft | 245 kts | 50° |
| 2026-04-15 11:09 | 51.22361 | 4.26154 | 3262 ft | 238 kts | 74° |
| 2026-04-15 11:10 | 51.22669 | 4.28683 | 3104 ft | 228 kts | 95° |
| 2026-04-15 11:10 | 51.22373 | 4.31092 | 2991 ft | 218 kts | 122° |
| 2026-04-15 11:10 | 51.21381 | 4.32776 | 2986 ft | 207 kts | 157° |
| 2026-04-15 11:10 | 51.20007 | 4.33164 | 2981 ft | 202 kts | 191° |
| 2026-04-15 11:11 | 51.18778 | 4.32137 | 2980 ft | 205 kts | 225° |
| 2026-04-15 11:11 | 51.17969 | 4.30233 | 2984 ft | 209 kts | 233° |
| 2026-04-15 11:11 | 51.17149 | 4.28307 | 2984 ft | 211 kts | 232° |
| 2026-04-15 11:11 | 51.16312 | 4.26409 | 2979 ft | 209 kts | 232° |
| 2026-04-15 11:12 | 51.15765 | 4.24262 | 2982 ft | 216 kts | 262° |
| 2026-04-15 11:12 | 51.16067 | 4.21943 | 2977 ft | 225 kts | 295° |
| 2026-04-15 11:12 | 51.17034 | 4.19940 | 2979 ft | 232 kts | 314° |
| 2026-04-15 11:12 | 51.18372 | 4.18482 | 2971 ft | 237 kts | 338° |
| 2026-04-15 11:13 | 51.20033 | 4.18254 | 2982 ft | 241 kts | 9° |
| 2026-04-15 11:13 | 51.21670 | 4.18863 | 2983 ft | 242 kts | 16° |
| 2026-04-15 11:13 | 51.23228 | 4.19753 | 2973 ft | 240 kts | 36° |
| 2026-04-15 11:13 | 51.24220 | 4.21753 | 2976 ft | 229 kts | 77° |
| 2026-04-15 11:14 | 51.24480 | 4.24231 | 2980 ft | 226 kts | 95° |
| 2026-04-15 11:14 | 51.24035 | 4.26530 | 2964 ft | 217 kts | 127° |
| 2026-04-15 11:14 | 51.23155 | 4.28513 | 2577 ft | 220 kts | 131° |
| 2026-04-15 11:14 | 51.22401 | 4.30660 | 2265 ft | 224 kts | 118° |
| 2026-04-15 11:15 | 51.21851 | 4.32944 | 1967 ft | 220 kts | 115° |
| 2026-04-15 11:15 | 51.21375 | 4.35196 | 1825 ft | 204 kts | 114° |
| 2026-04-15 11:15 | 51.20952 | 4.37250 | 1430 ft | 184 kts | 114° |
| 2026-04-15 11:15 | 51.20576 | 4.39061 | 1050 ft | 161 kts | 115° |
| 2026-04-15 11:16 | 51.20236 | 4.40656 | 782 ft | 145 kts | 117° |
| 2026-04-15 11:16 | 51.19914 | 4.42134 | 545 ft | 139 kts | 115° |
| 2026-04-15 11:16 | 51.19590 | 4.43590 | 329 ft | 141 kts | 113° |
| 2026-04-15 11:16 | 51.19261 | 4.45064 | 110 ft | 141 kts | 116° |
| 2026-04-15 11:17 | 51.18949 | 4.46468 | 46 ft | 111 kts | 110° |
| 2026-04-15 11:17 | 51.18809 | 4.47121 | 40 ft | 11 kts | 129° |
| 2026-04-15 11:17 | 51.18792 | 4.47124 | 42 ft | 2 kts | 194° |
| 2026-04-15 11:17 | 51.18712 | 4.47111 | 39 ft | 16 kts | 191° |
| 2026-04-15 11:18 | 51.18643 | 4.47000 | 39 ft | 15 kts | 228° |
| 2026-04-15 11:18 | 51.18585 | 4.46846 | 39 ft | 18 kts | 252° |
| 2026-04-15 11:18 | 51.18592 | 4.46564 | 39 ft | 22 kts | 281° |
| 2026-04-15 11:18 | 51.18629 | 4.46318 | 39 ft | 24 kts | 284° |
| 2026-04-15 11:19 | 51.18657 | 4.46136 | 36 ft | 26 kts | 283° |
| 2026-04-15 11:19 | 51.18704 | 4.45849 | 39 ft | 28 kts | 285° |
| 2026-04-15 11:19 | 51.18753 | 4.45556 | 39 ft | 17 kts | 284° |
| 2026-04-15 11:19 | 51.18820 | 4.45428 | 39 ft | 14 kts | 292° |
| 2026-04-15 11:20 | 51.18843 | 4.45296 | 38 ft | 0 kts | 336° |